Terminal Aerodrome Forecast
Issued by NWS

Home | Current Version | Previous Version | Text Only | Print | Product List | Glossary On
Versions: 1 2 3 4 5 6 7 8 9 10 11 12 13 14 15 16 17 18 19 20 21 22 23 24 25 26
000
FTUS41 KBGM 201100
TAFELM
TAF
KELM 201123Z 2012/2112 00000KT P6SM FEW002 BKN060 OVC100
      TEMPO 2012/2014 4SM BR BKN016
     FM201400 20005KT P6SM BKN250
     FM201600 18005KT P6SM BKN050
      TEMPO 2017/2021 4SM -SHRA BR
     FM202100 19003KT 5SM -SHRA BR BKN050 OVC100
      TEMPO 2108/2112 BKN010=

USA.gov is the U.S. government's official web portal to all federal, state and local government web resources and services.